Time;durP1;ratioP1;P1;durP2;ratioP2;P2;SDS_P1;SDS_P2;PMS_P1;PMS_P2;Temp;Humidity;BMP_temperature;BMP_pressure;BME280_temperature;BME280_humidity;BME280_pressure;Samples;Min_cycle;Max_cycle;Signal;HPM_P1;HPM_P2
2024/03/05 00:00:10;;;;;;;41.73;23.70;;;6.00;99.90;;;;;;5118854;27;20020;-77
2024/03/05 00:02:40;;;;;;;45.45;24.08;;;6.00;99.90;;;;;;5113851;28;20035;-77
2024/03/05 00:05:07;;;;;;;50.30;25.80;;;6.00;99.90;;;;;;5112381;27;20023;-77
2024/03/05 00:07:35;;;;;;;42.87;23.00;;;6.00;99.90;;;;;;5113750;27;20024;-77
2024/03/05 00:10:04;;;;;;;44.10;23.40;;;6.00;99.90;;;;;;5115176;27;20032;-77
2024/03/05 00:12:30;;;;;;;43.70;24.93;;;6.00;99.90;;;;;;5107404;28;20024;-77
2024/03/05 00:14:56;;;;;;;46.83;24.37;;;6.00;99.90;;;;;;5119404;28;20023;-76
2024/03/05 00:17:23;;;;;;;47.47;24.87;;;6.00;99.90;;;;;;5114019;28;20047;-77
2024/03/05 00:19:49;;;;;;;47.93;26.87;;;6.00;99.90;;;;;;5113638;28;20032;-77
2024/03/05 00:22:15;;;;;;;43.87;26.23;;;6.00;99.90;;;;;;5113325;28;20016;-77
2024/03/05 00:24:40;;;;;;;48.03;24.93;;;6.00;99.90;;;;;;5111419;28;20023;-77
2024/03/05 00:27:08;;;;;;;50.27;26.83;;;6.00;99.90;;;;;;5116048;28;20091;-77
2024/03/05 00:29:34;;;;;;;50.27;28.03;;;6.00;99.90;;;;;;5116222;28;20060;-77
2024/03/05 00:31:59;;;;;;;56.03;27.90;;;6.10;99.90;;;;;;5116155;27;20031;-77
2024/03/05 00:34:26;;;;;;;52.60;27.83;;;6.00;99.90;;;;;;5115852;27;20472;-77
2024/03/05 00:36:51;;;;;;;53.87;27.60;;;6.10;99.90;;;;;;5119526;27;20035;-77
2024/03/05 00:39:17;;;;;;;53.37;27.13;;;6.00;99.90;;;;;;5119042;27;20027;-77
2024/03/05 00:41:42;;;;;;;52.60;27.97;;;6.00;99.90;;;;;;5116637;27;20026;-77
2024/03/05 00:44:08;;;;;;;54.10;28.37;;;6.10;99.90;;;;;;5118905;27;20046;-77
2024/03/05 00:46:34;;;;;;;53.77;28.87;;;6.10;99.90;;;;;;5115087;27;20429;-77
2024/03/05 00:48:59;;;;;;;52.20;27.97;;;6.00;99.90;;;;;;5120685;27;20429;-77
2024/03/05 00:51:25;;;;;;;52.83;27.80;;;6.00;99.90;;;;;;5122440;27;20065;-77
2024/03/05 00:53:51;;;;;;;52.63;27.67;;;6.00;99.90;;;;;;5118132;27;20023;-77
2024/03/05 00:56:16;;;;;;;56.53;29.10;;;6.10;99.90;;;;;;5114256;27;20076;-77
2024/03/05 00:58:42;;;;;;;55.87;28.27;;;6.10;99.90;;;;;;5114104;27;20100;-77
2024/03/05 01:01:07;;;;;;;53.23;28.60;;;6.10;99.90;;;;;;5114631;27;20008;-77
2024/03/05 01:03:33;;;;;;;52.87;26.97;;;6.10;99.90;;;;;;5114758;27;20019;-77
2024/03/05 01:05:59;;;;;;;57.87;28.07;;;6.10;99.90;;;;;;5118391;27;20433;-77
2024/03/05 01:08:24;;;;;;;51.87;27.90;;;6.10;99.90;;;;;;5115082;27;20031;-77
2024/03/05 01:10:50;;;;;;;54.27;27.53;;;6.10;99.90;;;;;;5114230;27;20023;-77
2024/03/05 01:13:18;;;;;;;52.23;27.60;;;6.10;99.90;;;;;;5120905;27;20039;-77
2024/03/05 01:15:44;;;;;;;57.23;29.13;;;6.10;99.90;;;;;;5117381;27;20067;-77
2024/03/05 01:18:09;;;;;;;56.20;28.43;;;6.10;99.90;;;;;;5122561;27;20484;-77
2024/03/05 01:20:39;;;;;;;53.87;28.20;;;6.10;99.90;;;;;;5121258;27;20027;-77
2024/03/05 01:23:04;;;;;;;58.27;29.37;;;6.10;99.90;;;;;;5121863;27;20466;-77
2024/03/05 01:25:30;;;;;;;52.80;28.63;;;6.10;99.90;;;;;;5116811;27;20024;-76
2024/03/05 01:27:57;;;;;;;53.80;28.63;;;6.10;99.90;;;;;;5114062;27;20112;-77
2024/03/05 01:30:23;;;;;;;56.27;28.93;;;6.20;99.90;;;;;;5114555;27;20031;-77
2024/03/05 01:32:51;;;;;;;56.33;29.33;;;6.10;99.90;;;;;;5118445;27;20035;-77
2024/03/05 01:35:18;;;;;;;55.63;28.60;;;6.20;99.90;;;;;;5114197;27;20023;-77
2024/03/05 01:37:43;;;;;;;59.10;30.50;;;6.10;99.90;;;;;;5121942;27;20023;-77
2024/03/05 01:40:09;;;;;;;58.00;29.53;;;6.20;99.90;;;;;;5114773;27;20111;-77
2024/03/05 01:42:35;;;;;;;53.17;28.93;;;6.20;99.90;;;;;;5113602;27;20551;-77
2024/03/05 01:45:00;;;;;;;55.13;29.63;;;6.20;99.90;;;;;;5118501;27;20026;-77
2024/03/05 01:47:27;;;;;;;59.27;30.13;;;6.20;99.90;;;;;;5130523;27;20474;-77
2024/03/05 01:49:54;;;;;;;55.60;29.13;;;6.20;99.90;;;;;;5114173;27;20436;-77
2024/03/05 01:52:21;;;;;;;54.73;28.80;;;6.20;99.90;;;;;;5120338;27;20026;-77
2024/03/05 01:54:47;;;;;;;53.00;29.30;;;6.20;99.90;;;;;;5119784;27;20024;-77
2024/03/05 01:57:12;;;;;;;58.27;31.83;;;6.20;99.90;;;;;;5118981;27;20094;-77
2024/03/05 01:59:38;;;;;;;59.23;28.87;;;6.20;99.90;;;;;;5119745;27;20027;-77
2024/03/05 02:02:05;;;;;;;57.03;31.07;;;6.20;99.90;;;;;;5120678;27;20022;-77
2024/03/05 02:04:32;;;;;;;64.63;31.07;;;6.20;99.90;;;;;;5115005;27;20075;-77
2024/03/05 02:07:05;;;;;;;62.33;31.33;;;6.20;99.90;;;;;;5117346;27;20023;-77
2024/03/05 02:09:31;;;;;;;60.00;29.77;;;6.20;99.90;;;;;;5120909;27;20011;-77
2024/03/05 02:11:56;;;;;;;62.83;30.93;;;6.20;99.90;;;;;;5113047;27;20494;-77
2024/03/05 02:14:22;;;;;;;58.07;30.77;;;6.20;99.90;;;;;;5118623;27;20023;-77
2024/03/05 02:16:50;;;;;;;61.70;30.70;;;6.20;99.90;;;;;;5118215;27;20034;-77
2024/03/05 02:19:16;;;;;;;59.23;30.53;;;6.20;99.90;;;;;;5114813;27;20027;-77
2024/03/05 02:21:44;;;;;;;59.73;30.63;;;6.20;99.90;;;;;;5114199;27;20126;-77
2024/03/05 02:24:10;;;;;;;58.03;30.60;;;6.20;99.90;;;;;;5126094;27;20360;-77
2024/03/05 02:26:35;;;;;;;63.80;31.67;;;6.20;99.90;;;;;;5120146;27;20077;-77
2024/03/05 02:29:02;;;;;;;61.40;32.03;;;6.20;99.90;;;;;;5117943;27;20380;-77
2024/03/05 02:31:27;;;;;;;60.43;31.43;;;6.20;99.90;;;;;;5117039;27;20050;-77
2024/03/05 02:33:53;;;;;;;61.53;31.63;;;6.30;99.90;;;;;;5112177;27;20023;-77
2024/03/05 02:36:20;;;;;;;61.67;31.33;;;6.20;99.90;;;;;;5112434;28;20103;-77
2024/03/05 02:38:45;;;;;;;66.37;33.13;;;6.20;99.90;;;;;;5113754;27;20032;-77
2024/03/05 02:41:11;;;;;;;68.53;32.90;;;6.20;99.90;;;;;;5119908;27;20023;-77
2024/03/05 02:43:36;;;;;;;64.43;33.13;;;6.30;99.90;;;;;;5114611;27;20387;-77
2024/03/05 02:46:02;;;;;;;68.13;33.47;;;6.20;99.90;;;;;;5118539;27;20068;-77
2024/03/05 02:48:27;;;;;;;71.00;35.33;;;6.20;99.90;;;;;;5123145;27;20433;-77
2024/03/05 02:50:53;;;;;;;67.13;33.17;;;6.20;99.90;;;;;;5118290;27;20026;-77
2024/03/05 02:53:18;;;;;;;75.17;35.53;;;6.20;99.90;;;;;;5121609;27;20384;-77
2024/03/05 02:55:44;;;;;;;66.70;33.90;;;6.30;99.90;;;;;;5116700;27;20498;-77
2024/03/05 02:58:11;;;;;;;77.43;36.67;;;6.20;99.90;;;;;;5118086;27;20055;-77
2024/03/05 03:00:37;;;;;;;68.30;32.43;;;6.20;99.90;;;;;;5115617;27;20093;-77
2024/03/05 03:03:04;;;;;;;65.73;33.50;;;6.20;99.90;;;;;;5115286;27;20020;-77
2024/03/05 03:05:31;;;;;;;64.93;34.77;;;6.20;99.90;;;;;;5115336;27;20051;-77
2024/03/05 03:07:57;;;;;;;73.77;34.60;;;6.20;99.90;;;;;;5117208;27;20024;-77
2024/03/05 03:10:22;;;;;;;66.57;33.47;;;6.30;99.90;;;;;;5120712;27;20105;-77
2024/03/05 03:12:49;;;;;;;67.50;33.53;;;6.30;99.90;;;;;;5120865;27;20084;-77
2024/03/05 03:15:20;;;;;;;66.53;34.37;;;6.30;99.90;;;;;;5118044;27;20024;-77
2024/03/05 03:17:46;;;;;;;68.33;33.93;;;6.30;99.90;;;;;;5114866;27;20108;-77
2024/03/05 03:20:15;;;;;;;73.17;35.07;;;6.30;99.90;;;;;;5119414;27;20110;-77
2024/03/05 03:22:47;;;;;;;79.13;35.43;;;6.30;99.90;;;;;;5116378;27;20042;-77
2024/03/05 03:25:13;;;;;;;67.07;34.60;;;6.30;99.90;;;;;;5111532;27;20015;-77
2024/03/05 03:27:40;;;;;;;67.07;34.27;;;6.20;99.90;;;;;;5116754;27;20024;-77
2024/03/05 03:30:06;;;;;;;71.20;35.63;;;6.20;99.90;;;;;;5115532;27;20023;-77
2024/03/05 03:32:35;;;;;;;71.63;34.70;;;6.20;99.90;;;;;;5115155;27;20030;-76
2024/03/05 03:35:05;;;;;;;72.60;34.10;;;6.20;99.90;;;;;;5111344;27;20052;-77
2024/03/05 03:37:31;;;;;;;68.80;32.83;;;6.20;99.90;;;;;;5121131;27;20467;-77
2024/03/05 03:39:57;;;;;;;74.43;35.63;;;6.20;99.90;;;;;;5115713;27;20031;-77
2024/03/05 03:42:22;;;;;;;67.83;33.93;;;6.20;99.90;;;;;;5116639;27;20015;-77
2024/03/05 03:44:48;;;;;;;68.93;33.77;;;6.20;99.90;;;;;;5115964;27;20044;-77
2024/03/05 03:47:13;;;;;;;67.73;33.43;;;6.20;99.90;;;;;;5115022;27;20016;-77
2024/03/05 03:49:45;;;;;;;64.80;33.40;;;6.20;99.90;;;;;;5116615;27;20052;-77
2024/03/05 03:52:10;;;;;;;64.57;32.63;;;6.20;99.90;;;;;;5121724;27;20023;-76
2024/03/05 03:54:36;;;;;;;70.77;34.23;;;6.20;99.90;;;;;;5111229;28;20172;-77
2024/03/05 03:57:02;;;;;;;68.83;33.87;;;6.20;99.90;;;;;;5113199;27;20043;-77
2024/03/05 03:59:27;;;;;;;73.37;34.80;;;6.10;99.90;;;;;;5121663;27;20495;-77
2024/03/05 04:01:53;;;;;;;70.07;33.87;;;6.10;99.90;;;;;;5121289;27;20045;-77
2024/03/05 04:04:18;;;;;;;68.97;33.87;;;6.10;99.90;;;;;;5118553;27;20019;-77
2024/03/05 04:06:47;;;;;;;68.70;32.93;;;6.10;99.90;;;;;;5111829;28;20475;-77
2024/03/05 04:09:14;;;;;;;71.03;35.80;;;6.10;99.90;;;;;;5114492;27;20030;-77
2024/03/05 04:11:40;;;;;;;70.00;34.60;;;6.10;99.90;;;;;;5110894;28;20019;-77
2024/03/05 04:14:06;;;;;;;73.33;34.37;;;6.10;99.90;;;;;;5111175;28;20030;-77
2024/03/05 04:16:32;;;;;;;69.17;34.30;;;6.10;99.90;;;;;;5112627;28;20106;-77
2024/03/05 04:18:58;;;;;;;70.47;35.33;;;6.10;99.90;;;;;;5116201;28;20065;-77
2024/03/05 04:21:23;;;;;;;68.87;33.80;;;6.10;99.90;;;;;;5116876;28;20451;-77
2024/03/05 04:23:50;;;;;;;72.67;35.77;;;6.10;99.90;;;;;;5112448;28;20030;-77
2024/03/05 04:26:23;;;;;;;71.63;34.43;;;6.10;99.90;;;;;;5116088;27;20364;-77
2024/03/05 04:28:54;;;;;;;72.57;34.17;;;6.10;99.90;;;;;;5111161;28;20139;-77
2024/03/05 04:31:20;;;;;;;73.90;35.83;;;6.10;99.90;;;;;;5111179;28;20035;-77
2024/03/05 04:33:47;;;;;;;75.73;35.30;;;6.00;99.90;;;;;;5119241;28;20028;-77
2024/03/05 04:36:17;;;;;;;74.60;34.23;;;6.00;99.90;;;;;;5111300;28;20020;-77
2024/03/05 04:38:43;;;;;;;67.27;34.20;;;6.00;99.90;;;;;;5110532;28;20426;-77
2024/03/05 04:41:13;;;;;;;77.23;38.10;;;6.00;99.90;;;;;;5111246;28;20035;-77
2024/03/05 04:43:39;;;;;;;67.40;34.63;;;6.00;99.90;;;;;;5111044;28;20051;-77
2024/03/05 04:46:05;;;;;;;68.87;33.03;;;6.00;99.90;;;;;;5112266;28;20083;-77
2024/03/05 04:48:31;;;;;;;71.47;34.97;;;6.00;99.90;;;;;;5112240;28;20099;-77
2024/03/05 04:50:56;;;;;;;70.70;34.87;;;6.00;99.90;;;;;;5115868;28;20473;-77
2024/03/05 04:53:22;;;;;;;74.13;37.27;;;6.00;99.90;;;;;;5120325;28;20050;-77
2024/03/05 04:55:48;;;;;;;69.10;34.47;;;6.00;99.90;;;;;;5114570;28;20098;-77
2024/03/05 04:58:14;;;;;;;73.67;36.30;;;6.00;99.90;;;;;;5119203;27;20076;-77
2024/03/05 05:00:40;;;;;;;74.40;36.97;;;5.90;99.90;;;;;;5110645;28;20024;-77
2024/03/05 05:03:06;;;;;;;79.63;36.30;;;6.00;99.90;;;;;;5123462;28;20024;-77
2024/03/05 05:05:31;;;;;;;77.23;35.73;;;6.00;99.90;;;;;;5119887;28;20625;-77
2024/03/05 05:07:59;;;;;;;81.80;36.67;;;5.90;99.90;;;;;;5117546;28;20064;-76
2024/03/05 05:10:25;;;;;;;71.20;34.60;;;5.90;99.90;;;;;;5110350;28;20429;-77
2024/03/05 05:12:50;;;;;;;76.90;37.03;;;5.90;99.90;;;;;;5110434;28;20027;-77
2024/03/05 05:15:16;;;;;;;78.43;37.37;;;5.90;99.90;;;;;;5111986;28;20024;-79
2024/03/05 05:17:44;;;;;;;80.37;36.80;;;5.90;99.90;;;;;;5118499;28;20494;-79
2024/03/05 05:20:10;;;;;;;81.27;38.13;;;5.90;99.90;;;;;;5118168;27;20031;-79
2024/03/05 05:22:41;;;;;;;80.67;36.50;;;5.80;99.90;;;;;;5123454;27;20044;-80
2024/03/05 05:25:08;;;;;;;76.50;36.37;;;5.90;99.90;;;;;;5123278;27;20012;-79
2024/03/05 05:27:35;;;;;;;78.13;36.93;;;5.80;99.90;;;;;;5120864;27;20028;-80
2024/03/05 05:30:01;;;;;;;76.40;35.87;;;5.80;99.90;;;;;;5121923;27;20034;-79
2024/03/05 05:32:28;;;;;;;78.17;36.47;;;5.80;99.90;;;;;;5121143;27;20024;-79
2024/03/05 05:34:53;;;;;;;76.73;36.30;;;5.80;99.90;;;;;;5121575;27;20015;-80
2024/03/05 05:37:19;;;;;;;70.97;34.93;;;5.80;99.90;;;;;;5120688;27;20031;-80
2024/03/05 05:39:45;;;;;;;72.70;35.63;;;5.80;99.90;;;;;;5118841;27;20093;-80
2024/03/05 05:42:13;;;;;;;72.07;35.53;;;5.80;99.90;;;;;;5118760;27;20024;-79
2024/03/05 05:44:39;;;;;;;73.73;35.07;;;5.80;99.90;;;;;;5118315;28;20028;-79
2024/03/05 05:47:04;;;;;;;77.37;35.97;;;5.80;99.90;;;;;;5118404;27;20111;-79
2024/03/05 05:49:32;;;;;;;76.47;34.27;;;5.80;99.90;;;;;;5121638;27;20023;-79
2024/03/05 05:51:57;;;;;;;73.87;33.40;;;5.80;99.90;;;;;;5119273;27;20102;-79
2024/03/05 05:54:23;;;;;;;75.67;36.10;;;5.80;99.90;;;;;;5121845;27;20055;-80
2024/03/05 05:56:49;;;;;;;71.53;35.77;;;5.80;99.90;;;;;;5118595;27;20096;-80
2024/03/05 05:59:15;;;;;;;71.97;36.00;;;5.90;99.90;;;;;;5118903;27;20027;-79
2024/03/05 06:01:41;;;;;;;77.80;37.10;;;5.90;99.90;;;;;;5118450;27;20023;-79
2024/03/05 06:04:07;;;;;;;74.37;34.37;;;5.90;99.90;;;;;;5116652;27;20024;-79
2024/03/05 06:06:38;;;;;;;71.10;34.77;;;5.90;99.90;;;;;;5115755;27;20019;-80
2024/03/05 06:09:08;;;;;;;77.47;36.50;;;5.90;99.90;;;;;;5118996;27;20035;-80
2024/03/05 06:11:38;;;;;;;80.47;38.20;;;5.90;99.90;;;;;;5117421;27;20019;-79
2024/03/05 06:14:06;;;;;;;71.77;34.80;;;5.90;99.90;;;;;;5113326;27;20131;-79
2024/03/05 06:16:32;;;;;;;72.50;35.20;;;5.90;99.90;;;;;;5114048;27;20027;-80
2024/03/05 06:18:58;;;;;;;71.03;34.87;;;5.90;99.90;;;;;;5120711;27;20083;-79
2024/03/05 06:21:23;;;;;;;71.17;35.03;;;5.90;99.90;;;;;;5124364;27;20035;-79
2024/03/05 06:23:50;;;;;;;74.60;34.60;;;5.90;99.90;;;;;;5125136;27;20386;-79
2024/03/05 06:26:16;;;;;;;73.23;34.47;;;6.00;99.90;;;;;;5119154;27;20024;-79
2024/03/05 06:28:42;;;;;;;68.20;33.73;;;6.00;99.90;;;;;;5121695;27;20084;-79
2024/03/05 06:31:10;;;;;;;68.93;32.73;;;6.00;99.90;;;;;;5122976;27;20031;-79
2024/03/05 06:33:35;;;;;;;70.87;33.17;;;6.00;99.90;;;;;;5122244;27;20111;-79
2024/03/05 06:36:03;;;;;;;71.37;34.33;;;6.00;99.90;;;;;;5118843;27;20162;-79
2024/03/05 06:38:29;;;;;;;73.73;35.30;;;6.10;99.90;;;;;;5121521;27;20181;-79
2024/03/05 06:40:55;;;;;;;75.47;35.40;;;6.10;99.90;;;;;;5126588;27;20133;-79
2024/03/05 06:43:31;;;;;;;73.20;35.57;;;6.10;99.90;;;;;;5123362;27;20032;-79
2024/03/05 06:45:57;;;;;;;65.80;32.67;;;6.20;99.90;;;;;;5114651;27;20720;-79
2024/03/05 06:48:23;;;;;;;69.30;34.90;;;6.20;99.90;;;;;;5121839;27;20023;-79
2024/03/05 06:50:57;;;;;;;76.77;34.57;;;6.20;99.90;;;;;;5118238;27;20050;-79
2024/03/05 06:58:52;;;;;;;73.47;35.80;;;6.30;99.90;;;;;;5124720;27;20184;-79
2024/03/05 07:01:19;;;;;;;71.47;32.63;;;6.30;99.90;;;;;;5124284;27;20047;-78
2024/03/05 07:03:45;;;;;;;67.43;33.10;;;6.30;99.90;;;;;;5123835;27;20023;-79
2024/03/05 07:06:12;;;;;;;68.00;34.60;;;6.40;99.90;;;;;;5124095;27;20087;-78
2024/03/05 07:08:39;;;;;;;68.17;34.33;;;6.40;99.90;;;;;;5126178;27;20019;-79
2024/03/05 07:11:12;;;;;;;68.90;33.70;;;6.50;99.90;;;;;;5123791;27;20020;-79
2024/03/05 07:13:40;;;;;;;68.43;33.83;;;6.50;99.90;;;;;;5119763;27;21554;-78
2024/03/05 07:16:13;;;;;;;69.63;33.40;;;6.60;99.90;;;;;;5119777;27;20024;-79
2024/03/05 07:18:39;;;;;;;68.67;35.63;;;6.60;99.90;;;;;;5127078;27;20043;-78
2024/03/05 07:21:07;;;;;;;66.50;33.93;;;6.70;99.90;;;;;;5118435;27;20020;-78
2024/03/05 07:23:33;;;;;;;66.40;34.87;;;6.70;99.90;;;;;;5127566;27;20023;-78
2024/03/05 07:25:59;;;;;;;64.17;33.50;;;6.70;99.90;;;;;;5122306;27;20024;-79
2024/03/05 07:28:26;;;;;;;66.57;34.87;;;6.70;99.90;;;;;;5118192;27;20019;-78
2024/03/05 07:30:52;;;;;;;64.30;34.33;;;6.80;99.90;;;;;;5116644;27;20043;-78
2024/03/05 07:33:17;;;;;;;63.33;32.07;;;6.80;99.90;;;;;;5115843;27;20038;-78
2024/03/05 07:35:43;;;;;;;65.93;33.03;;;6.90;99.90;;;;;;5115954;27;20023;-79
2024/03/05 07:38:09;;;;;;;63.80;32.60;;;6.90;99.90;;;;;;5123277;27;20058;-79
2024/03/05 07:40:35;;;;;;;71.73;34.50;;;7.00;99.90;;;;;;5126322;27;20039;-79
2024/03/05 07:43:08;;;;;;;65.67;34.07;;;7.00;99.90;;;;;;5127286;27;20439;-78
2024/03/05 07:45:34;;;;;;;69.80;33.83;;;6.90;99.90;;;;;;5121604;27;20035;-78
2024/03/05 07:48:00;;;;;;;64.13;34.47;;;7.00;99.90;;;;;;5118835;27;20045;-78
2024/03/05 07:50:27;;;;;;;63.63;32.30;;;7.00;99.90;;;;;;5119103;27;20019;-77
2024/03/05 07:52:58;;;;;;;68.47;33.17;;;7.00;99.90;;;;;;5129065;27;20022;-78
2024/03/05 07:55:26;;;;;;;70.77;33.57;;;7.00;99.90;;;;;;5105458;27;20019;-79
2024/03/05 07:57:56;;;;;;;71.20;33.47;;;7.00;99.90;;;;;;5120056;27;20031;-78
2024/03/05 08:00:24;;;;;;;68.43;33.70;;;7.00;99.90;;;;;;5124451;27;20534;-78
2024/03/05 08:02:54;;;;;;;77.07;37.57;;;7.00;99.90;;;;;;5125521;27;20056;-78
2024/03/05 08:05:23;;;;;;;85.37;34.63;;;7.00;99.90;;;;;;5112382;28;20114;-79
2024/03/05 08:07:48;;;;;;;67.93;33.33;;;6.90;99.90;;;;;;5127808;27;20042;-79
2024/03/05 08:10:16;;;;;;;68.10;32.80;;;7.00;99.90;;;;;;5126420;27;20019;-79
2024/03/05 08:12:43;;;;;;;71.33;33.80;;;7.00;99.90;;;;;;5114405;28;20034;-78
2024/03/05 08:15:12;;;;;;;67.03;32.67;;;7.00;99.90;;;;;;5125256;27;20020;-77
2024/03/05 08:17:39;;;;;;;71.00;34.43;;;7.00;99.90;;;;;;5121233;28;20395;-78
2024/03/05 08:20:09;;;;;;;68.53;33.50;;;7.00;99.90;;;;;;5124995;28;20059;-78
2024/03/05 08:22:35;;;;;;;70.00;34.97;;;7.00;99.90;;;;;;5116437;28;20048;-78
2024/03/05 08:25:09;;;;;;;58.23;30.80;;;7.00;99.90;;;;;;5117702;28;20389;-78
2024/03/05 08:27:38;;;;;;;70.30;32.83;;;7.00;99.90;;;;;;5118955;28;20629;-78
2024/03/05 08:30:08;;;;;;;59.80;31.80;;;7.00;99.90;;;;;;5120503;28;20023;-78
2024/03/05 08:32:37;;;;;;;67.93;32.97;;;7.00;99.90;;;;;;5122219;28;20019;-78
2024/03/05 08:35:05;;;;;;;68.83;34.43;;;7.00;99.90;;;;;;5119615;28;20042;-78
2024/03/05 08:37:31;;;;;;;58.77;31.77;;;7.00;99.90;;;;;;5123377;28;20015;-78
2024/03/05 08:39:56;;;;;;;66.23;32.83;;;7.00;99.90;;;;;;5121547;27;20024;-79
2024/03/05 08:42:22;;;;;;;67.50;34.00;;;7.00;99.90;;;;;;5122016;28;20064;-78
2024/03/05 08:44:48;;;;;;;67.37;34.17;;;7.00;99.90;;;;;;5122230;28;20084;-78
2024/03/05 08:47:13;;;;;;;66.17;33.17;;;7.00;99.90;;;;;;5113935;28;20055;-76
2024/03/05 08:49:39;;;;;;;64.40;32.13;;;7.10;99.90;;;;;;5117175;27;20024;-76
2024/03/05 08:52:05;;;;;;;69.63;34.17;;;7.10;99.90;;;;;;5123954;27;20019;-76
2024/03/05 08:54:31;;;;;;;63.13;33.37;;;7.10;99.90;;;;;;5119899;27;20107;-77
2024/03/05 08:57:00;;;;;;;58.53;32.10;;;7.20;99.90;;;;;;5123561;27;20024;-77
2024/03/05 08:59:26;;;;;;;66.83;33.77;;;7.20;99.90;;;;;;5118732;27;20031;-77
2024/03/05 09:01:53;;;;;;;67.73;35.20;;;7.20;99.90;;;;;;5119413;27;20382;-76
2024/03/05 09:04:23;;;;;;;68.70;32.93;;;7.20;99.90;;;;;;5120706;27;20031;-77
2024/03/05 09:06:49;;;;;;;67.40;33.20;;;7.20;99.90;;;;;;5120670;27;20072;-77
2024/03/05 09:09:16;;;;;;;71.70;32.60;;;7.20;99.90;;;;;;5124189;27;20110;-77
2024/03/05 09:11:41;;;;;;;68.33;32.10;;;7.10;99.90;;;;;;5121391;27;20022;-76
2024/03/05 09:14:07;;;;;;;64.83;32.70;;;7.10;99.90;;;;;;5123058;27;20043;-77
2024/03/05 09:16:33;;;;;;;66.17;32.90;;;7.20;99.90;;;;;;5124562;27;20024;-77
2024/03/05 09:18:58;;;;;;;65.07;30.93;;;7.20;99.90;;;;;;5122623;27;20021;-77
2024/03/05 09:21:24;;;;;;;63.50;31.57;;;7.10;99.90;;;;;;5122883;27;20023;-77
2024/03/05 09:23:50;;;;;;;66.53;32.80;;;7.10;99.90;;;;;;5118714;27;20023;-77
2024/03/05 09:26:15;;;;;;;66.23;31.23;;;7.20;99.90;;;;;;5123024;27;20091;-78
2024/03/05 09:28:41;;;;;;;63.67;31.03;;;7.20;99.90;;;;;;5120402;27;20089;-77
2024/03/05 09:31:07;;;;;;;61.03;31.90;;;7.20;99.90;;;;;;5108474;27;20080;-77
2024/03/05 09:33:33;;;;;;;66.27;33.70;;;7.20;99.90;;;;;;5121496;27;20073;-77
2024/03/05 09:35:58;;;;;;;66.70;31.90;;;7.20;99.90;;;;;;5121776;27;20619;-77
2024/03/05 09:38:26;;;;;;;65.90;32.70;;;7.30;99.90;;;;;;5123068;27;20050;-77
2024/03/05 09:40:54;;;;;;;67.67;33.33;;;7.40;99.90;;;;;;5123278;27;20570;-77
2024/03/05 09:43:23;;;;;;;57.67;30.50;;;7.40;99.90;;;;;;5126588;27;20031;-77
2024/03/05 09:45:51;;;;;;;59.57;30.30;;;7.60;99.90;;;;;;5113899;27;20031;-77
2024/03/05 09:48:18;;;;;;;58.17;29.87;;;7.60;99.90;;;;;;5124175;27;20015;-77
2024/03/05 09:50:47;;;;;;;56.60;28.93;;;7.70;99.90;;;;;;5126375;27;20617;-77
2024/03/05 09:53:14;;;;;;;62.73;30.87;;;7.80;99.90;;;;;;5124850;27;20463;-77
2024/03/05 09:55:39;;;;;;;53.10;26.93;;;7.80;99.90;;;;;;5126616;27;20176;-77
2024/03/05 09:58:10;;;;;;;49.17;27.57;;;7.90;99.90;;;;;;5120289;27;20110;-78
2024/03/05 10:00:39;;;;;;;47.03;24.77;;;8.00;99.90;;;;;;5119265;27;20023;-78
2024/03/05 10:03:08;;;;;;;46.63;24.67;;;8.10;99.90;;;;;;5122781;27;20030;-77
2024/03/05 10:05:36;;;;;;;45.57;24.53;;;8.20;99.90;;;;;;5120004;27;20057;-77
2024/03/05 10:08:02;;;;;;;41.37;22.03;;;8.20;99.90;;;;;;5120238;27;20023;-77
2024/03/05 10:10:32;;;;;;;42.50;22.00;;;8.30;99.90;;;;;;5122886;27;20035;-77
2024/03/05 10:13:01;;;;;;;35.20;19.07;;;8.40;99.90;;;;;;5121221;27;20035;-77
2024/03/05 10:15:27;;;;;;;39.40;19.63;;;8.40;99.90;;;;;;5119791;27;20031;-77
2024/03/05 10:17:53;;;;;;;33.40;18.83;;;8.60;99.90;;;;;;5123232;27;21435;-77
2024/03/05 10:20:33;;;;;;;35.27;18.90;;;8.60;99.90;;;;;;5124759;27;21475;-77
2024/03/05 10:23:01;;;;;;;33.37;17.93;;;8.70;99.90;;;;;;5114588;27;20050;-77
2024/03/05 10:25:29;;;;;;;33.20;18.57;;;8.70;99.90;;;;;;5120449;27;20019;-77
2024/03/05 10:27:55;;;;;;;28.70;17.63;;;8.70;99.90;;;;;;5119539;27;20020;-77
2024/03/05 10:30:31;;;;;;;32.83;16.33;;;8.80;99.90;;;;;;5115704;27;20028;-77
2024/03/05 10:32:59;;;;;;;28.97;16.73;;;8.90;99.90;;;;;;5114226;27;20028;-77
2024/03/05 10:35:25;;;;;;;37.40;17.90;;;9.00;99.90;;;;;;5120229;27;20091;-77
2024/03/05 10:38:03;;;;;;;29.23;16.17;;;9.10;99.90;;;;;;5118283;27;20479;-77
2024/03/05 10:40:37;;;;;;;33.30;16.77;;;9.10;99.90;;;;;;5120697;27;20031;-76
2024/03/05 10:43:05;;;;;;;26.07;16.30;;;9.30;99.90;;;;;;5115735;27;20022;-77
2024/03/05 10:45:34;;;;;;;20.53;13.80;;;9.40;99.90;;;;;;5119470;27;20020;-77
2024/03/05 10:48:01;;;;;;;27.97;15.57;;;9.60;99.90;;;;;;5114722;27;20038;-75
2024/03/05 10:50:28;;;;;;;28.43;16.80;;;9.70;99.90;;;;;;5121048;27;20111;-75
2024/03/05 10:52:55;;;;;;;27.10;16.43;;;9.70;99.90;;;;;;5118659;27;20020;-75
2024/03/05 10:55:23;;;;;;;25.73;16.17;;;9.70;99.90;;;;;;5118806;27;20059;-75
2024/03/05 11:00:35;;;;;;;29.25;16.83;;;9.80;99.90;;;;;;5109148;27;20547;-74
2024/03/05 11:03:07;;;;;;;26.70;16.27;;;9.80;99.90;;;;;;5113803;27;20031;-74
2024/03/05 11:05:40;;;;;;;24.80;15.83;;;9.90;99.90;;;;;;5108243;27;20104;-75
2024/03/05 11:08:13;;;;;;;23.87;15.20;;;10.10;99.90;;;;;;5105362;28;20024;-72
2024/03/05 11:10:41;;;;;;;27.30;16.63;;;10.10;99.90;;;;;;5105070;27;20069;-76
2024/03/05 11:13:10;;;;;;;22.03;14.67;;;10.20;99.90;;;;;;5110052;27;20623;-76
2024/03/05 11:15:36;;;;;;;25.67;16.63;;;10.20;99.90;;;;;;5105593;28;20387;-76
2024/03/05 11:18:01;;;;;;;27.27;17.17;;;10.20;99.90;;;;;;5103430;28;20051;-75
2024/03/05 11:20:43;;;;;;;20.77;14.13;;;10.10;99.90;;;;;;5107189;27;20526;-75
2024/03/05 11:23:13;;;;;;;21.93;14.47;;;10.10;99.90;;;;;;5108858;27;20019;-75
2024/03/05 11:25:46;;;;;;;24.00;15.07;;;10.10;99.90;;;;;;5107146;28;20027;-75
2024/03/05 11:28:12;;;;;;;24.73;14.93;;;10.10;99.90;;;;;;5104652;27;20917;-74
2024/03/05 11:30:41;;;;;;;26.07;16.70;;;10.00;99.90;;;;;;5111684;28;20098;-79
2024/03/05 11:33:10;;;;;;;22.37;14.93;;;9.90;99.90;;;;;;5115988;27;20110;-76
2024/03/05 11:35:43;;;;;;;25.30;15.73;;;9.80;99.90;;;;;;5106459;28;20024;-70
2024/03/05 11:38:13;;;;;;;23.73;15.97;;;9.70;99.90;;;;;;5109503;28;20012;-70
2024/03/05 11:40:40;;;;;;;24.87;16.47;;;9.60;99.90;;;;;;5110850;27;20050;-70
2024/03/05 11:43:06;;;;;;;25.90;17.53;;;9.50;99.90;;;;;;5109299;27;20043;-71
2024/03/05 11:45:48;;;;;;;24.70;15.70;;;9.40;99.90;;;;;;5110560;28;20027;-70
2024/03/05 11:48:18;;;;;;;25.03;16.10;;;9.30;99.90;;;;;;5118457;27;20035;-69
2024/03/05 11:50:46;;;;;;;26.77;16.90;;;9.20;99.90;;;;;;5111007;28;20056;-69
2024/03/05 11:53:12;;;;;;;23.97;16.57;;;9.20;99.90;;;;;;5113491;28;20031;-74
2024/03/05 11:55:38;;;;;;;27.10;16.20;;;9.30;99.90;;;;;;5109201;27;20035;-69
2024/03/05 11:58:07;;;;;;;21.40;15.30;;;9.20;99.90;;;;;;5121178;27;20031;-76
2024/03/05 12:00:33;;;;;;;25.60;16.83;;;9.20;99.90;;;;;;5120585;27;20386;-76
2024/03/05 12:02:59;;;;;;;23.40;16.63;;;9.20;99.90;;;;;;5111122;27;20495;-76
2024/03/05 12:05:25;;;;;;;26.47;16.67;;;9.10;99.90;;;;;;5111083;27;20027;-76
2024/03/05 12:08:00;;;;;;;28.67;16.97;;;9.10;99.90;;;;;;5113234;27;20016;-74
2024/03/05 12:10:35;;;;;;;27.67;18.25;;;9.00;99.90;;;;;;5118562;27;20092;-73
2024/03/05 12:13:06;;;;;;;25.90;17.85;;;9.00;99.90;;;;;;5114955;27;20059;-75
2024/03/05 12:15:36;;;;;;;28.97;18.77;;;8.90;99.90;;;;;;5122362;27;20019;-76
2024/03/05 12:18:10;;;;;;;27.47;17.40;;;8.90;99.90;;;;;;5114034;28;20023;-76
2024/03/05 12:20:37;;;;;;;28.60;18.77;;;9.00;99.90;;;;;;5114986;27;20523;-75
2024/03/05 12:23:03;;;;;;;26.73;17.40;;;9.10;99.90;;;;;;5111128;28;20476;-75
2024/03/05 12:25:28;;;;;;;29.97;18.77;;;9.20;99.90;;;;;;5113698;28;20041;-75
2024/03/05 12:27:54;;;;;;;27.97;18.23;;;9.30;99.90;;;;;;5122868;27;20023;-76
2024/03/05 12:30:21;;;;;;;36.33;18.33;;;9.40;99.90;;;;;;5119813;27;20051;-75
2024/03/05 12:32:54;;;;;;;25.27;17.13;;;9.50;99.90;;;;;;5119468;27;20027;-77
2024/03/05 12:35:23;;;;;;;24.93;16.40;;;9.60;99.90;;;;;;5118991;27;20046;-75
2024/03/05 12:37:50;;;;;;;25.83;16.07;;;9.70;99.90;;;;;;5118739;27;20507;-79
2024/03/05 12:40:20;;;;;;;28.33;16.70;;;9.80;99.90;;;;;;5120320;27;20030;-76
2024/03/05 12:42:50;;;;;;;24.03;15.07;;;9.90;99.90;;;;;;5120789;27;20398;-76